createdAt,value
2023-07-18T00:00:11.597Z,16.61
2023-07-18T00:01:34.041Z,16.68
2023-07-18T00:02:57.141Z,16.85
2023-07-18T00:04:19.188Z,16.79
2023-07-18T00:05:42.800Z,16.82
2023-07-18T00:07:07.310Z,16.78
2023-07-18T00:08:30.207Z,16.57
2023-07-18T00:09:52.143Z,16.46
2023-07-18T00:11:15.214Z,16.25
2023-07-18T00:12:37.529Z,16.18
2023-07-18T00:14:00.897Z,16.05
2023-07-18T00:15:23.314Z,15.94
2023-07-18T00:16:46.279Z,16.14
2023-07-18T00:18:08.556Z,16.29
2023-07-18T00:19:31.620Z,16.47
2023-07-18T00:20:53.629Z,16.18
2023-07-18T00:22:18.263Z,16.44
2023-07-18T00:23:40.265Z,16.79
2023-07-18T00:25:03.242Z,16.80
2023-07-18T00:26:25.436Z,16.80
2023-07-18T00:27:51.060Z,17.07
2023-07-18T00:29:13.141Z,17.27
2023-07-18T00:30:36.091Z,17.27
2023-07-18T00:31:58.442Z,17.17
2023-07-18T00:33:21.444Z,17.01
2023-07-18T00:34:45.718Z,16.58
2023-07-18T00:36:08.780Z,16.79
2023-07-18T00:37:32.570Z,16.78
2023-07-18T00:38:55.470Z,16.68
2023-07-18T00:40:17.496Z,16.78
2023-07-18T00:41:41.050Z,16.91
2023-07-18T00:43:03.072Z,16.72
2023-07-18T00:44:26.351Z,16.77
2023-07-18T00:45:50.483Z,16.75
2023-07-18T00:47:13.552Z,16.92
2023-07-18T00:48:35.766Z,16.89
2023-07-18T00:49:58.721Z,16.74
2023-07-18T00:51:21.211Z,16.98
2023-07-18T00:52:52.587Z,16.64
2023-07-18T00:54:15.069Z,16.72
2023-07-18T00:55:38.681Z,16.90
2023-07-18T00:57:01.163Z,16.66
2023-07-18T00:58:25.614Z,16.79
2023-07-18T00:59:48.315Z,16.56
2023-07-18T01:01:11.367Z,16.52
2023-07-18T01:02:33.634Z,16.49
2023-07-18T01:03:56.624Z,16.07
2023-07-18T01:05:20.228Z,16.23
2023-07-18T01:06:43.648Z,16.55
2023-07-18T01:08:07.089Z,16.36
2023-07-18T01:09:30.288Z,16.27
2023-07-18T01:10:52.873Z,16.03
2023-07-18T01:12:16.052Z,16.09
2023-07-18T01:13:38.000Z,16.23
2023-07-18T01:15:00.975Z,16.46
2023-07-18T01:16:23.040Z,16.30
2023-07-18T01:17:47.333Z,15.87
2023-07-18T01:19:09.398Z,15.83
2023-07-18T01:20:34.268Z,15.87
2023-07-18T01:21:57.628Z,15.82
2023-07-18T01:23:22.392Z,15.49
2023-07-18T01:24:44.843Z,15.30
2023-07-18T01:26:07.718Z,15.47
2023-07-18T01:27:31.241Z,15.09
2023-07-18T01:28:54.642Z,15.54
2023-07-18T01:30:18.456Z,15.85
2023-07-18T01:31:41.453Z,16.11
2023-07-18T01:33:04.250Z,16.23
2023-07-18T01:34:27.423Z,15.66
2023-07-18T01:35:49.393Z,15.63
2023-07-18T01:37:16.311Z,15.84
2023-07-18T01:38:38.331Z,16.06
2023-07-18T01:40:01.667Z,16.20
2023-07-18T01:41:23.689Z,15.36
2023-07-18T01:42:46.592Z,15.39
2023-07-18T01:44:10.312Z,15.15
2023-07-18T01:45:32.342Z,14.88
2023-07-18T01:46:55.289Z,14.84
2023-07-18T01:48:17.778Z,14.66
2023-07-18T01:49:40.761Z,14.73
2023-07-18T01:51:04.525Z,14.50
2023-07-18T01:52:28.328Z,14.54
2023-07-18T01:53:51.276Z,14.55
2023-07-18T01:55:13.228Z,14.46
2023-07-18T01:56:36.552Z,14.40
2023-07-18T01:57:58.700Z,14.24
2023-07-18T01:59:23.326Z,14.54
2023-07-18T02:00:46.259Z,14.47
2023-07-18T02:02:08.284Z,14.85
2023-07-18T02:03:31.379Z,15.10
2023-07-18T02:04:53.398Z,15.31
2023-07-18T02:06:16.304Z,15.36
2023-07-18T02:07:39.630Z,15.60
2023-07-18T02:09:02.532Z,15.78
2023-07-18T02:10:26.101Z,15.95
2023-07-18T02:11:49.174Z,15.93
2023-07-18T02:13:11.244Z,15.90
2023-07-18T02:14:34.169Z,15.76
2023-07-18T02:15:57.144Z,15.66
2023-07-18T02:17:19.244Z,15.65
2023-07-18T02:18:42.870Z,15.52
2023-07-18T02:20:07.667Z,15.61
2023-07-18T02:21:30.782Z,15.41
2023-07-18T02:22:54.100Z,15.47
2023-07-18T02:24:17.034Z,15.24
2023-07-18T02:25:39.246Z,15.07
2023-07-18T02:27:02.645Z,15.23
2023-07-18T02:28:24.810Z,15.14
2023-07-18T02:29:48.452Z,15.10
2023-07-18T02:31:11.483Z,15.34
2023-07-18T02:32:34.060Z,14.84
2023-07-18T02:33:59.052Z,14.93
2023-07-18T02:35:23.156Z,14.98
2023-07-18T02:36:45.158Z,15.20
2023-07-18T02:38:09.665Z,15.13
2023-07-18T02:39:33.735Z,15.37
2023-07-18T02:40:56.775Z,15.36
2023-07-18T02:42:18.824Z,15.10
2023-07-18T02:43:41.773Z,14.86
2023-07-18T02:45:04.810Z,14.67
2023-07-18T02:46:27.891Z,14.33
2023-07-18T02:47:49.955Z,14.13
2023-07-18T02:49:12.982Z,14.23
2023-07-18T02:50:35.609Z,14.55
2023-07-18T02:51:58.550Z,14.58
2023-07-18T02:53:21.844Z,14.48
2023-07-18T02:54:44.754Z,14.71
2023-07-18T02:56:06.939Z,15.11
2023-07-18T02:57:29.952Z,15.20
2023-07-18T02:58:51.977Z,15.49
2023-07-18T03:00:21.444Z,15.52
2023-07-18T03:01:45.614Z,15.29
2023-07-18T03:03:08.861Z,15.33
2023-07-18T03:04:31.976Z,15.60
2023-07-18T03:05:55.640Z,15.29
2023-07-18T03:07:18.956Z,15.17
2023-07-18T03:08:44.304Z,15.44
2023-07-18T03:10:06.886Z,15.28
2023-07-18T03:11:29.890Z,14.80
2023-07-18T03:12:52.564Z,14.60
2023-07-18T03:14:15.753Z,14.43
2023-07-18T03:15:37.733Z,14.41
2023-07-18T03:17:01.101Z,14.38
2023-07-18T03:18:23.269Z,14.66
2023-07-18T03:19:46.276Z,14.91
2023-07-18T03:21:08.534Z,15.22
2023-07-18T03:22:31.555Z,15.21
2023-07-18T03:23:54.995Z,15.05
2023-07-18T03:25:20.941Z,15.22
2023-07-18T03:26:43.111Z,15.58
2023-07-18T03:28:06.072Z,15.86
2023-07-18T03:29:28.050Z,15.87
2023-07-18T03:30:51.270Z,15.96
2023-07-18T03:32:13.462Z,15.86
2023-07-18T03:33:36.479Z,15.89
2023-07-18T03:34:58.442Z,15.92
2023-07-18T03:36:21.612Z,15.83
2023-07-18T03:37:43.932Z,15.72
2023-07-18T03:39:08.278Z,15.43
2023-07-18T03:40:32.958Z,15.11
2023-07-18T03:41:56.053Z,15.02
2023-07-18T03:43:18.026Z,15.11
2023-07-18T03:44:41.197Z,15.42
2023-07-18T03:46:03.244Z,15.63
2023-07-18T03:47:26.253Z,15.59
2023-07-18T03:48:49.294Z,15.89
2023-07-18T03:50:16.136Z,15.92
2023-07-18T03:51:39.815Z,15.98
2023-07-18T03:53:02.751Z,16.13
2023-07-18T03:54:26.843Z,16.07
2023-07-18T03:55:50.369Z,15.89
2023-07-18T03:57:12.365Z,16.07
2023-07-18T03:58:35.690Z,16.27
2023-07-18T03:59:57.768Z,16.28
2023-07-18T04:01:21.013Z,16.18
2023-07-18T04:02:46.382Z,16.33
2023-07-18T04:04:10.649Z,16.30
2023-07-18T04:05:32.742Z,16.27
2023-07-18T04:06:55.675Z,16.05
2023-07-18T04:08:17.708Z,16.24
2023-07-18T04:09:42.086Z,16.31
2023-07-18T04:11:04.066Z,16.14
2023-07-18T04:12:27.009Z,15.90
2023-07-18T04:13:49.994Z,15.57
2023-07-18T04:15:13.436Z,15.56
2023-07-18T04:16:36.485Z,15.72
2023-07-18T04:17:58.493Z,15.82
2023-07-18T04:19:21.684Z,15.90
2023-07-18T04:20:43.648Z,16.00
2023-07-18T04:22:06.723Z,15.99
2023-07-18T04:23:29.016Z,15.69
2023-07-18T04:24:56.301Z,15.59
2023-07-18T04:26:19.261Z,15.37
2023-07-18T04:27:41.288Z,15.32
2023-07-18T04:29:06.169Z,15.36
2023-07-18T04:30:28.205Z,15.08
2023-07-18T04:31:51.280Z,15.20
2023-07-18T04:33:13.954Z,15.11
2023-07-18T04:34:37.640Z,15.06
2023-07-18T04:35:59.644Z,15.18
2023-07-18T04:37:22.749Z,15.42
2023-07-18T04:38:45.204Z,15.60
2023-07-18T04:40:11.250Z,15.69
2023-07-18T04:41:41.646Z,15.59
2023-07-18T04:43:09.041Z,15.77
2023-07-18T04:44:31.449Z,16.00
2023-07-18T04:45:54.537Z,15.98
2023-07-18T04:47:16.530Z,16.08
2023-07-18T04:48:40.206Z,16.21
2023-07-18T04:50:02.229Z,16.33
2023-07-18T04:51:25.677Z,16.44
2023-07-18T04:52:47.617Z,16.50
2023-07-18T04:54:10.554Z,16.54
2023-07-18T04:55:35.651Z,16.72
2023-07-18T04:56:58.665Z,16.71
2023-07-18T04:58:21.269Z,16.77
2023-07-18T04:59:44.268Z,16.85
2023-07-18T05:01:06.230Z,16.99
2023-07-18T05:02:29.317Z,17.12
2023-07-18T05:03:58.012Z,17.20
2023-07-18T05:05:21.599Z,17.18
2023-07-18T05:06:43.548Z,17.35
2023-07-18T05:08:06.813Z,17.44
2023-07-18T05:09:29.289Z,17.46
2023-07-18T05:10:53.679Z,17.19
2023-07-18T05:12:15.690Z,17.25
2023-07-18T05:13:38.708Z,17.40
2023-07-18T05:15:01.677Z,17.54
2023-07-18T05:16:24.856Z,17.52
2023-07-18T05:17:47.659Z,17.58
2023-07-18T05:19:10.723Z,17.17
2023-07-18T05:20:33.198Z,16.91
2023-07-18T05:21:56.318Z,16.88
2023-07-18T05:23:18.300Z,17.25
2023-07-18T05:24:41.262Z,17.49
2023-07-18T05:26:05.163Z,17.40
2023-07-18T05:27:28.117Z,17.28
2023-07-18T05:28:50.113Z,17.40
2023-07-18T05:30:14.355Z,17.55
2023-07-18T05:31:36.356Z,17.67
2023-07-18T05:32:59.400Z,17.78
2023-07-18T05:34:23.585Z,17.46
2023-07-18T05:35:46.577Z,17.59
2023-07-18T05:37:08.601Z,17.86
2023-07-18T05:38:31.592Z,18.07
2023-07-18T05:39:53.594Z,18.17
2023-07-18T05:41:18.204Z,18.19
2023-07-18T05:42:41.509Z,18.17
2023-07-18T05:44:04.617Z,18.32
2023-07-18T05:45:26.625Z,18.48
2023-07-18T05:46:49.660Z,18.41
2023-07-18T05:48:12.652Z,18.00
2023-07-18T05:49:35.102Z,17.80
2023-07-18T05:50:58.160Z,17.83
2023-07-18T05:52:20.397Z,17.90
2023-07-18T05:53:43.342Z,17.95
2023-07-18T05:55:06.587Z,18.21
2023-07-18T05:56:30.972Z,18.35
2023-07-18T05:57:52.936Z,18.51
2023-07-18T05:59:16.019Z,18.55
2023-07-18T06:00:38.197Z,18.62
2023-07-18T06:02:04.004Z,18.75
2023-07-18T06:03:26.251Z,18.94
2023-07-18T06:04:49.694Z,18.92
2023-07-18T06:06:12.370Z,19.01
2023-07-18T06:07:35.574Z,19.08
2023-07-18T06:08:57.920Z,19.05
2023-07-18T06:10:21.100Z,19.07
2023-07-18T06:11:46.798Z,19.00
2023-07-18T06:13:10.030Z,18.74
2023-07-18T06:14:32.153Z,18.77
2023-07-18T06:15:55.141Z,18.86
2023-07-18T06:17:17.618Z,18.89
2023-07-18T06:18:42.735Z,19.03
2023-07-18T06:20:10.312Z,18.98
2023-07-18T06:21:32.430Z,18.94
2023-07-18T06:22:56.170Z,19.07
2023-07-18T06:24:19.788Z,19.18
2023-07-18T06:25:43.311Z,19.18
2023-07-18T06:27:07.087Z,19.15
2023-07-18T06:28:30.106Z,19.31
2023-07-18T06:29:52.110Z,19.39
2023-07-18T06:31:15.604Z,19.47
2023-07-18T06:32:37.729Z,19.51
2023-07-18T06:34:00.918Z,19.40
2023-07-18T06:35:24.247Z,19.63
2023-07-18T06:36:48.233Z,19.65
2023-07-18T06:38:10.392Z,19.60
2023-07-18T06:39:33.380Z,19.80
2023-07-18T06:40:56.493Z,19.85
2023-07-18T06:42:20.898Z,19.82
2023-07-18T06:43:42.995Z,19.60
2023-07-18T06:45:07.330Z,19.34
2023-07-18T06:46:29.330Z,19.52
2023-07-18T06:47:52.379Z,19.66
2023-07-18T06:49:14.578Z,19.71
2023-07-18T06:50:37.907Z,19.77
2023-07-18T06:52:00.040Z,19.93
2023-07-18T06:53:23.417Z,20.08
2023-07-18T06:54:45.415Z,20.23
2023-07-18T06:56:08.365Z,19.98
2023-07-18T06:57:31.733Z,19.95
2023-07-18T06:58:54.757Z,20.12
2023-07-18T07:00:17.853Z,20.25
2023-07-18T07:01:41.051Z,20.30
2023-07-18T07:03:03.586Z,20.39
2023-07-18T07:04:26.641Z,20.48
2023-07-18T07:05:48.673Z,20.51
2023-07-18T07:07:12.140Z,20.58
2023-07-18T07:08:34.257Z,20.74
2023-07-18T07:09:57.307Z,20.78
2023-07-18T07:11:19.470Z,20.83
2023-07-18T07:12:44.130Z,20.90
2023-07-18T07:14:06.231Z,20.96
2023-07-18T07:15:29.235Z,20.89
2023-07-18T07:16:51.365Z,20.30
2023-07-18T07:18:14.947Z,20.01
2023-07-18T07:19:37.130Z,20.24
2023-07-18T07:21:00.652Z,20.39
2023-07-18T07:22:22.754Z,20.55
2023-07-18T07:23:45.694Z,20.73
2023-07-18T07:25:08.560Z,20.81
2023-07-18T07:26:31.662Z,20.65
2023-07-18T07:27:55.450Z,20.62
2023-07-18T07:29:19.582Z,20.65
2023-07-18T07:30:41.700Z,20.76
2023-07-18T07:32:05.099Z,20.93
2023-07-18T07:33:27.287Z,20.94
2023-07-18T07:34:50.268Z,21.04
2023-07-18T07:36:12.349Z,21.08
2023-07-18T07:37:35.578Z,21.02
2023-07-18T07:38:57.527Z,21.13
2023-07-18T07:40:21.068Z,21.09
2023-07-18T07:41:44.025Z,21.03
2023-07-18T07:43:07.379Z,21.10
2023-07-18T07:44:30.367Z,21.14
2023-07-18T07:45:52.649Z,21.11
2023-07-18T07:47:15.569Z,21.12
2023-07-18T07:48:37.739Z,21.13
2023-07-18T07:50:01.974Z,21.20
2023-07-18T07:51:24.195Z,21.24
2023-07-18T07:52:47.545Z,21.07
2023-07-18T07:54:09.595Z,21.06
2023-07-18T07:55:33.087Z,21.05
2023-07-18T07:56:55.106Z,21.16
2023-07-18T07:58:19.664Z,21.24
2023-07-18T07:59:42.089Z,21.27
2023-07-18T08:01:05.238Z,21.38
2023-07-18T08:02:29.589Z,21.46
2023-07-18T08:03:52.662Z,21.54
2023-07-18T08:05:14.765Z,21.72
2023-07-18T08:06:37.927Z,21.70
2023-07-18T08:08:00.903Z,21.77
2023-07-18T08:10:46.136Z,21.87
2023-07-18T08:12:09.412Z,21.79
2023-07-18T08:13:34.015Z,21.70
2023-07-18T08:14:56.018Z,21.64
2023-07-18T08:16:19.060Z,21.67
2023-07-18T08:17:41.163Z,21.60
2023-07-18T08:19:04.316Z,21.66
2023-07-18T08:20:26.682Z,21.48
2023-07-18T08:21:49.677Z,21.33
2023-07-18T08:23:12.717Z,21.26
2023-07-18T08:24:34.796Z,21.30
2023-07-18T08:25:57.974Z,21.35
2023-07-18T08:27:19.929Z,21.57
2023-07-18T08:28:44.304Z,21.55
2023-07-18T08:30:07.572Z,21.23
2023-07-18T08:31:31.544Z,21.17
2023-07-18T08:32:55.440Z,21.06
2023-07-18T08:34:25.996Z,21.26
2023-07-18T08:35:50.035Z,21.30
2023-07-18T08:37:14.216Z,21.45
2023-07-18T08:38:36.305Z,21.56
2023-07-18T08:39:59.886Z,21.70
2023-07-18T08:41:22.886Z,21.98
2023-07-18T08:42:46.895Z,22.09
2023-07-18T08:44:10.747Z,22.06
2023-07-18T08:45:38.612Z,22.11
2023-07-18T08:47:03.856Z,22.15
2023-07-18T08:48:26.843Z,22.32
2023-07-18T08:49:49.329Z,22.32
2023-07-18T08:51:13.057Z,21.89
2023-07-18T08:52:35.146Z,22.09
2023-07-18T08:53:58.468Z,22.10
2023-07-18T08:55:22.715Z,21.86
2023-07-18T08:56:46.042Z,21.98
2023-07-18T08:58:08.545Z,22.19
2023-07-18T08:59:33.281Z,21.86
2023-07-18T09:00:55.439Z,21.85
2023-07-18T09:02:18.412Z,21.71
2023-07-18T09:03:41.135Z,21.85
2023-07-18T09:05:04.323Z,21.99
2023-07-18T09:06:26.386Z,22.10
2023-07-18T09:07:49.410Z,22.14
2023-07-18T09:09:16.995Z,22.13
2023-07-18T09:10:40.231Z,22.26
2023-07-18T09:12:05.579Z,22.36
2023-07-18T09:13:29.129Z,22.30
2023-07-18T09:14:56.880Z,22.34
2023-07-18T09:16:22.113Z,22.43
2023-07-18T09:17:49.257Z,22.57
2023-07-18T09:19:12.617Z,22.66
2023-07-18T09:20:35.053Z,22.19
2023-07-18T09:22:00.670Z,22.13
2023-07-18T09:23:22.827Z,22.22
2023-07-18T09:24:49.126Z,22.48
2023-07-18T09:26:13.961Z,22.72
2023-07-18T09:27:38.131Z,22.88
2023-07-18T09:29:00.779Z,23.11
2023-07-18T09:30:29.627Z,23.06
2023-07-18T09:31:51.798Z,23.20
2023-07-18T09:33:14.993Z,23.30
2023-07-18T09:34:37.061Z,23.33
2023-07-18T09:36:00.196Z,23.35
2023-07-18T09:37:22.453Z,23.55
2023-07-18T09:38:46.683Z,23.72
2023-07-18T09:40:11.433Z,23.18
2023-07-18T09:41:35.397Z,23.39
2023-07-18T09:43:01.527Z,23.60
2023-07-18T09:44:33.159Z,23.69
2023-07-18T09:45:57.896Z,23.83
2023-07-18T09:47:21.832Z,23.94
2023-07-18T09:48:46.533Z,23.93
2023-07-18T09:50:11.233Z,24.01
2023-07-18T09:51:34.377Z,24.11
2023-07-18T09:53:00.241Z,24.28
2023-07-18T09:54:22.904Z,23.97
2023-07-18T09:55:47.091Z,23.85
2023-07-18T09:57:11.299Z,23.84
2023-07-18T09:58:40.364Z,23.86
2023-07-18T10:00:06.855Z,23.99
2023-07-18T10:01:31.958Z,24.25
2023-07-18T10:02:57.773Z,24.28
2023-07-18T10:04:20.153Z,24.19
2023-07-18T10:05:44.108Z,24.26
2023-07-18T10:07:09.957Z,24.40
2023-07-18T10:08:33.668Z,24.21
2023-07-18T10:09:55.997Z,23.84
2023-07-18T10:11:19.383Z,24.08
2023-07-18T10:12:59.817Z,24.32
2023-07-18T10:14:22.753Z,24.42
2023-07-18T10:16:20.049Z,24.16
2023-07-18T10:17:44.492Z,23.57
2023-07-18T10:19:17.126Z,23.75
2023-07-18T10:20:40.780Z,24.02
2023-07-18T10:22:03.331Z,24.42
2023-07-18T10:23:41.957Z,24.86
2023-07-18T10:25:08.257Z,24.82
2023-07-18T10:26:32.449Z,25.34
2023-07-18T10:27:55.559Z,25.76
2023-07-18T10:29:18.147Z,25.37
2023-07-18T10:30:43.770Z,25.53
2023-07-18T10:32:10.104Z,26.11
2023-07-18T10:33:34.463Z,26.35
2023-07-18T10:34:56.467Z,26.54
2023-07-18T10:36:26.299Z,26.21
2023-07-18T10:37:54.423Z,26.20
2023-07-18T10:39:16.486Z,26.74
2023-07-18T10:40:44.686Z,27.59
2023-07-18T10:42:08.882Z,27.61
2023-07-18T10:43:33.541Z,27.13
2023-07-18T10:44:56.921Z,27.43
2023-07-18T10:46:21.130Z,27.59
2023-07-18T10:47:43.333Z,27.69
2023-07-18T10:49:08.056Z,28.51
2023-07-18T10:50:30.173Z,29.50
2023-07-18T10:51:56.052Z,29.61
2023-07-18T10:53:19.967Z,29.46
2023-07-18T10:54:45.349Z,29.70
2023-07-18T10:56:08.305Z,30.20
2023-07-18T10:57:33.685Z,29.67
2023-07-18T10:58:56.720Z,27.37
2023-07-18T11:00:21.278Z,26.77
2023-07-18T11:01:43.717Z,27.57
2023-07-18T11:03:06.753Z,28.24
2023-07-18T11:04:30.210Z,28.71
2023-07-18T11:05:54.713Z,29.59
2023-07-18T11:07:16.806Z,30.02
2023-07-18T11:08:39.785Z,30.17
2023-07-18T11:10:02.278Z,29.50
2023-07-18T11:11:25.340Z,29.28
2023-07-18T11:12:47.536Z,30.03
2023-07-18T11:14:10.477Z,30.50
2023-07-18T11:15:32.614Z,28.77
2023-07-18T11:16:56.501Z,28.80
2023-07-18T11:18:19.092Z,29.64
2023-07-18T11:19:43.725Z,30.20
2023-07-18T11:21:07.179Z,30.11
2023-07-18T11:22:30.825Z,30.07
2023-07-18T11:23:53.924Z,30.22
2023-07-18T11:25:17.055Z,31.12
2023-07-18T11:26:39.348Z,31.10
2023-07-18T11:28:05.556Z,31.68
2023-07-18T11:29:27.682Z,29.98
2023-07-18T11:30:52.255Z,28.65
2023-07-18T11:32:14.284Z,29.54
2023-07-18T11:33:37.313Z,30.49
2023-07-18T11:35:01.257Z,30.55
2023-07-18T11:36:25.090Z,30.29
2023-07-18T11:37:49.314Z,30.75
2023-07-18T11:39:21.533Z,30.43
2023-07-18T11:40:44.350Z,29.62
2023-07-18T11:42:09.710Z,29.68
2023-07-18T11:43:31.707Z,29.81
2023-07-18T11:44:54.904Z,30.09
2023-07-18T11:46:16.964Z,30.08
2023-07-18T11:47:44.959Z,28.76
2023-07-18T11:49:07.588Z,29.52
2023-07-18T11:50:32.344Z,30.45
2023-07-18T11:51:54.339Z,30.62
2023-07-18T11:53:26.105Z,28.80
2023-07-18T11:54:48.343Z,29.37
2023-07-18T11:56:11.297Z,29.12
2023-07-18T11:57:33.236Z,28.71
2023-07-18T11:58:57.675Z,29.25
2023-07-18T12:00:20.672Z,29.97
2023-07-18T12:01:44.476Z,30.17
2023-07-18T12:03:06.671Z,28.95
2023-07-18T12:04:29.632Z,29.24
2023-07-18T12:05:53.889Z,28.03
2023-07-18T12:07:15.807Z,27.91
2023-07-18T12:08:38.764Z,28.64
2023-07-18T12:10:01.082Z,29.33
2023-07-18T12:11:24.608Z,30.08
2023-07-18T12:12:47.847Z,30.92
2023-07-18T12:14:10.201Z,30.63
2023-07-18T12:15:34.715Z,30.17
2023-07-18T12:16:58.860Z,30.03
2023-07-18T12:18:21.868Z,30.28
2023-07-18T12:19:45.347Z,29.64
2023-07-18T12:21:09.536Z,29.70
2023-07-18T12:22:31.850Z,29.27
2023-07-18T12:23:54.843Z,29.00
2023-07-18T12:25:17.298Z,29.35
2023-07-18T12:26:40.195Z,28.96
2023-07-18T12:28:03.585Z,29.12
2023-07-18T12:29:26.523Z,29.26
2023-07-18T12:30:48.667Z,28.97
2023-07-18T12:32:12.148Z,28.94
2023-07-18T12:33:34.433Z,29.04
2023-07-18T12:34:57.467Z,28.82
2023-07-18T12:36:21.317Z,29.09
2023-07-18T12:37:44.457Z,29.27
2023-07-18T12:39:07.175Z,28.94
2023-07-18T12:40:30.158Z,29.03
2023-07-18T12:41:52.138Z,29.34
2023-07-18T12:43:15.076Z,29.43
2023-07-18T12:44:38.929Z,29.54
2023-07-18T12:46:02.501Z,29.59
2023-07-18T12:47:24.503Z,29.73
2023-07-18T12:50:13.984Z,29.25
2023-07-18T12:51:37.410Z,28.92
2023-07-18T12:53:00.689Z,29.17
2023-07-18T12:54:22.659Z,29.24
2023-07-18T12:55:46.598Z,29.33
2023-07-18T12:57:08.702Z,29.49
2023-07-18T12:58:31.603Z,29.23
2023-07-18T12:59:54.036Z,28.96
2023-07-18T13:01:17.492Z,29.12
2023-07-18T13:02:39.654Z,29.42
2023-07-18T13:04:04.686Z,29.63
2023-07-18T13:05:27.728Z,29.91
2023-07-18T13:06:51.369Z,29.46
2023-07-18T13:08:14.393Z,29.55
2023-07-18T13:09:37.827Z,29.60
2023-07-18T13:11:00.854Z,29.94
2023-07-18T13:12:22.882Z,29.59
2023-07-18T13:13:47.450Z,29.31
2023-07-18T13:15:09.876Z,29.42
2023-07-18T13:16:32.828Z,29.40
2023-07-18T13:17:55.070Z,29.18
2023-07-18T13:19:18.268Z,29.30
2023-07-18T13:20:41.942Z,29.38
2023-07-18T13:22:06.899Z,29.03
2023-07-18T13:23:28.846Z,29.13
2023-07-18T13:24:51.803Z,29.34
2023-07-18T13:26:16.638Z,29.33
2023-07-18T13:27:42.319Z,29.49
2023-07-18T13:29:04.844Z,29.78
2023-07-18T13:30:27.885Z,29.96
2023-07-18T13:31:49.869Z,30.37
2023-07-18T13:33:12.837Z,30.45
2023-07-18T13:34:36.434Z,30.35
2023-07-18T13:35:59.226Z,30.12
2023-07-18T13:37:23.756Z,30.13
2023-07-18T13:38:45.770Z,30.35
2023-07-18T13:40:10.023Z,30.35
2023-07-18T13:41:32.977Z,30.33
2023-07-18T13:42:56.079Z,29.84
2023-07-18T13:44:19.021Z,29.01
2023-07-18T13:45:42.038Z,28.76
2023-07-18T13:47:04.650Z,28.97
2023-07-18T13:48:27.668Z,29.16
2023-07-18T13:49:50.523Z,28.83
2023-07-18T13:51:14.056Z,28.94
2023-07-18T13:52:38.397Z,29.26
2023-07-18T13:54:00.407Z,29.76
2023-07-18T13:55:23.334Z,30.02
2023-07-18T13:56:45.315Z,30.13
2023-07-18T13:58:08.465Z,29.79
2023-07-18T13:59:30.484Z,29.90
2023-07-18T14:00:53.674Z,30.12
2023-07-18T14:02:15.785Z,30.26
2023-07-18T14:03:38.786Z,30.02
2023-07-18T14:05:00.856Z,30.00
2023-07-18T14:06:23.823Z,30.20
2023-07-18T14:07:47.137Z,30.27
2023-07-18T14:09:10.046Z,30.57
2023-07-18T14:10:32.083Z,30.69
2023-07-18T14:11:56.103Z,30.73
2023-07-18T14:13:19.354Z,31.00
2023-07-18T14:14:42.365Z,30.93
2023-07-18T14:16:05.342Z,30.27
2023-07-18T14:17:29.966Z,30.33
2023-07-18T14:18:52.606Z,30.25
2023-07-18T14:20:15.963Z,30.44
2023-07-18T14:21:38.265Z,29.86
2023-07-18T14:23:03.868Z,29.80
2023-07-18T14:24:25.872Z,29.87
2023-07-18T14:25:49.405Z,29.70
2023-07-18T14:27:13.462Z,29.94
2023-07-18T14:28:36.448Z,30.06
2023-07-18T14:29:58.431Z,29.36
2023-07-18T14:31:21.448Z,29.19
2023-07-18T14:32:43.477Z,29.89
2023-07-18T14:34:07.553Z,30.19
2023-07-18T14:35:29.876Z,30.10
2023-07-18T14:36:52.865Z,30.28
2023-07-18T14:38:16.246Z,30.03
2023-07-18T14:39:40.623Z,30.03
2023-07-18T14:41:02.739Z,30.04
2023-07-18T14:42:25.675Z,29.91
2023-07-18T14:43:47.903Z,29.77
2023-07-18T14:45:11.764Z,29.96
2023-07-18T14:46:33.889Z,30.38
2023-07-18T14:47:56.941Z,30.65
2023-07-18T14:49:19.825Z,30.67
2023-07-18T14:50:43.243Z,30.86
2023-07-18T14:52:06.302Z,30.73
2023-07-18T14:53:30.578Z,30.70
2023-07-18T14:54:57.476Z,30.65
2023-07-18T14:56:20.766Z,30.47
2023-07-18T14:57:43.224Z,30.82
2023-07-18T14:59:06.620Z,30.98
2023-07-18T15:00:28.791Z,31.18
2023-07-18T15:01:52.085Z,31.11
2023-07-18T15:03:14.248Z,30.30
2023-07-18T15:04:37.380Z,30.37
2023-07-18T15:05:59.605Z,30.50
2023-07-18T15:07:22.676Z,30.30
2023-07-18T15:08:46.456Z,30.52
2023-07-18T15:10:10.142Z,30.36
2023-07-18T15:11:32.100Z,30.23
2023-07-18T15:12:55.179Z,30.32
2023-07-18T15:14:17.773Z,30.45
2023-07-18T15:15:41.350Z,30.80
2023-07-18T15:17:03.708Z,31.02
2023-07-18T15:18:26.705Z,31.00
2023-07-18T15:19:50.705Z,30.67
2023-07-18T15:21:14.438Z,30.48
2023-07-18T15:22:37.034Z,29.91
2023-07-18T15:24:01.768Z,29.89
2023-07-18T15:25:24.143Z,29.89
2023-07-18T15:26:47.088Z,29.93
2023-07-18T15:28:14.358Z,29.74
2023-07-18T15:29:36.309Z,29.85
2023-07-18T15:31:01.139Z,29.84
2023-07-18T15:32:23.177Z,29.92
2023-07-18T15:33:46.177Z,30.02
2023-07-18T15:35:08.614Z,30.11
2023-07-18T15:36:31.580Z,30.22
2023-07-18T15:37:53.549Z,29.06
2023-07-18T15:39:17.837Z,29.61
2023-07-18T15:40:40.455Z,29.67
2023-07-18T15:42:03.430Z,29.82
2023-07-18T15:43:25.467Z,30.04
2023-07-18T15:44:49.238Z,29.70
2023-07-18T15:46:11.262Z,29.63
2023-07-18T15:47:34.348Z,29.49
2023-07-18T15:48:56.303Z,29.15
2023-07-18T15:50:20.434Z,29.60
2023-07-18T15:51:43.789Z,29.89
2023-07-18T15:53:06.899Z,29.85
2023-07-18T15:54:30.262Z,30.18
2023-07-18T15:55:53.391Z,29.57
2023-07-18T15:57:16.587Z,29.85
2023-07-18T15:58:38.571Z,29.84
2023-07-18T16:00:01.484Z,29.85
2023-07-18T16:01:24.212Z,29.63
2023-07-18T16:02:47.286Z,29.45
2023-07-18T16:04:10.483Z,29.31
2023-07-18T16:05:33.693Z,29.22
2023-07-18T16:06:55.649Z,29.13
2023-07-18T16:08:18.601Z,29.29
2023-07-18T16:09:51.526Z,29.14
2023-07-18T16:11:15.083Z,29.00
2023-07-18T16:12:37.230Z,29.06
2023-07-18T16:14:00.359Z,29.45
2023-07-18T16:15:22.432Z,29.40
2023-07-18T16:16:45.579Z,28.83
2023-07-18T16:18:07.559Z,29.28
2023-07-18T16:19:30.627Z,29.54
2023-07-18T16:20:52.556Z,29.47
2023-07-18T16:22:17.868Z,29.25
2023-07-18T16:23:39.814Z,29.27
2023-07-18T16:25:09.122Z,28.62
2023-07-18T16:26:31.172Z,28.39
2023-07-18T16:27:54.111Z,28.65
2023-07-18T16:29:16.585Z,29.00
2023-07-18T16:30:39.522Z,29.09
2023-07-18T16:32:01.825Z,28.69
2023-07-18T16:33:25.056Z,28.68
2023-07-18T16:34:47.185Z,28.56
2023-07-18T16:36:10.384Z,28.65
2023-07-18T16:37:32.358Z,28.83
2023-07-18T16:38:55.333Z,28.80
2023-07-18T16:40:18.740Z,28.77
2023-07-18T16:41:42.226Z,28.72
2023-07-18T16:43:06.131Z,28.95
2023-07-18T16:44:29.183Z,28.86
2023-07-18T16:45:51.895Z,28.93
2023-07-18T16:47:15.058Z,29.24
2023-07-18T16:48:37.184Z,29.06
2023-07-18T16:50:00.746Z,28.54
2023-07-18T16:51:22.739Z,28.33
2023-07-18T16:52:47.632Z,28.40
2023-07-18T16:54:10.114Z,28.48
2023-07-18T16:55:34.328Z,28.14
2023-07-18T16:56:56.286Z,28.07
2023-07-18T16:58:19.257Z,27.89
2023-07-18T16:59:41.253Z,27.50
2023-07-18T17:01:05.193Z,27.49
2023-07-18T17:02:27.337Z,27.77
2023-07-18T17:03:50.528Z,27.64
2023-07-18T17:05:12.508Z,27.55
2023-07-18T17:06:35.475Z,27.40
2023-07-18T17:07:57.770Z,27.60
2023-07-18T17:09:20.711Z,27.89
2023-07-18T17:10:44.119Z,27.68
2023-07-18T17:12:08.073Z,27.74
2023-07-18T17:13:30.810Z,27.58
2023-07-18T17:14:53.743Z,27.66
2023-07-18T17:16:15.715Z,27.75
2023-07-18T17:17:39.242Z,27.71
2023-07-18T17:19:01.251Z,27.87
2023-07-18T17:20:24.448Z,27.60
2023-07-18T17:21:47.391Z,27.68
2023-07-18T17:23:11.030Z,27.32
2023-07-18T17:24:33.088Z,27.40
2023-07-18T17:26:00.548Z,27.67
2023-07-18T17:27:23.268Z,27.93
2023-07-18T17:28:46.183Z,27.68
2023-07-18T17:30:08.948Z,27.61
2023-07-18T17:31:32.204Z,27.25
2023-07-18T17:32:54.385Z,27.28
2023-07-18T17:34:17.717Z,27.25
2023-07-18T17:35:39.909Z,26.94
2023-07-18T17:37:03.005Z,27.13
2023-07-18T17:38:25.245Z,26.97
2023-07-18T17:39:50.754Z,27.01
2023-07-18T17:41:15.744Z,26.61
2023-07-18T17:42:37.973Z,26.41
2023-07-18T17:44:02.404Z,26.66
2023-07-18T17:45:24.401Z,26.99
2023-07-18T17:46:48.618Z,27.17
2023-07-18T17:48:10.672Z,27.42
2023-07-18T17:49:33.672Z,27.26
2023-07-18T17:50:55.643Z,27.32
2023-07-18T17:52:18.678Z,27.20
2023-07-18T17:53:40.643Z,26.92
2023-07-18T17:55:03.598Z,26.92
2023-07-18T17:56:27.276Z,26.70